createdAt,value
2019-02-09T00:00:19.157Z,100084.08
2019-02-09T00:00:50.365Z,100085.78
2019-02-09T00:01:21.605Z,100086.21
2019-02-09T00:01:52.817Z,100085.78
2019-02-09T00:02:24.072Z,100081.88
2019-02-09T00:02:55.293Z,100083.63
2019-02-09T00:03:26.508Z,100086.62
2019-02-09T00:03:57.721Z,100082.75
2019-02-09T00:04:28.927Z,100085.77
2019-02-09T00:05:00.243Z,100078.86
2019-02-09T00:05:31.440Z,100080.59
2019-02-09T00:06:02.645Z,100081.88
2019-02-09T00:06:33.858Z,100081.03
2019-02-09T00:07:05.077Z,100080.59
2019-02-09T00:07:36.344Z,100079.73
2019-02-09T00:08:08.383Z,100080.16
2019-02-09T00:08:39.621Z,100077.56
2019-02-09T00:09:11.931Z,100074.55
2019-02-09T00:09:43.154Z,100084.91
2019-02-09T00:10:14.358Z,100077.59
2019-02-09T00:10:45.631Z,100081.47
2019-02-09T00:11:16.849Z,100080.58
2019-02-09T00:11:48.082Z,100081.45
2019-02-09T00:12:19.279Z,100084.05
2019-02-09T00:12:50.506Z,100082.33
2019-02-09T00:13:21.738Z,100083.61
2019-02-09T00:13:52.938Z,100081.03
2019-02-09T00:14:24.139Z,100078.88
2019-02-09T00:14:55.401Z,100078.87
2019-02-09T00:15:26.624Z,100075.42
2019-02-09T00:15:57.837Z,100079.73
2019-02-09T00:16:30.126Z,100076.73
2019-02-09T00:17:01.358Z,100077.57
2019-02-09T00:17:32.617Z,100072.40
2019-02-09T00:18:03.827Z,100071.13
2019-02-09T00:18:35.075Z,100076.30
2019-02-09T00:19:06.286Z,100075.88
2019-02-09T00:19:39.531Z,100070.27
2019-02-09T00:20:10.744Z,100071.54
2019-02-09T00:20:41.969Z,100068.98
2019-02-09T00:21:13.192Z,100069.82
2019-02-09T00:21:44.449Z,100065.52
2019-02-09T00:22:15.657Z,100069.41
2019-02-09T00:22:46.866Z,100076.70
2019-02-09T00:23:18.088Z,100063.37
2019-02-09T00:23:49.346Z,100068.11
2019-02-09T00:24:20.591Z,100067.25
2019-02-09T00:24:51.812Z,100075.44
2019-02-09T00:25:23.024Z,100066.80
2019-02-09T00:25:54.248Z,100068.94
2019-02-09T00:26:25.479Z,100070.70
2019-02-09T00:26:56.685Z,100069.38
2019-02-09T00:27:27.896Z,100067.66
2019-02-09T00:27:59.109Z,100071.54
2019-02-09T00:28:30.336Z,100072.83
2019-02-09T00:29:01.612Z,100072.82
2019-02-09T00:29:32.813Z,100072.82
2019-02-09T00:30:04.099Z,100076.30
2019-02-09T00:30:35.353Z,100071.53
2019-02-09T00:31:06.621Z,100074.53
2019-02-09T00:31:37.839Z,100076.27
2019-02-09T00:32:09.049Z,100072.84
2019-02-09T00:32:40.301Z,100072.40
2019-02-09T00:33:11.508Z,100073.69
2019-02-09T00:33:42.726Z,100072.84
2019-02-09T00:34:13.972Z,100074.98
2019-02-09T00:34:45.173Z,100073.69
2019-02-09T00:35:16.432Z,100077.55
2019-02-09T00:35:47.643Z,100072.83
2019-02-09T00:36:18.885Z,100072.80
2019-02-09T00:36:50.104Z,100070.66
2019-02-09T00:37:21.325Z,100077.11
2019-02-09T00:37:52.578Z,100073.67
2019-02-09T00:38:23.809Z,100078.44
2019-02-09T00:39:02.345Z,100074.97
2019-02-09T00:39:33.575Z,100066.82
2019-02-09T00:40:04.790Z,100073.28
2019-02-09T00:40:36.031Z,100076.71
2019-02-09T00:41:07.320Z,100074.98
2019-02-09T00:41:38.540Z,100077.57
2019-02-09T00:42:09.762Z,100075.42
2019-02-09T00:42:40.964Z,100075.41
2019-02-09T00:43:12.181Z,100073.24
2019-02-09T00:43:43.431Z,100076.27
2019-02-09T00:44:14.643Z,100077.14
2019-02-09T00:44:45.882Z,100075.39
2019-02-09T00:45:17.099Z,100076.23
2019-02-09T00:45:48.309Z,100075.40
2019-02-09T00:46:19.563Z,100077.13
2019-02-09T00:46:50.813Z,100074.55
2019-02-09T00:47:22.019Z,100074.94
2019-02-09T00:47:53.302Z,100073.66
2019-02-09T00:48:24.510Z,100077.52
2019-02-09T00:48:56.772Z,100079.25
2019-02-09T00:49:27.986Z,100073.64
2019-02-09T00:49:59.196Z,100077.55
2019-02-09T00:50:30.397Z,100077.09
2019-02-09T00:51:01.662Z,100076.25
2019-02-09T00:51:32.873Z,100073.67
2019-02-09T00:52:04.136Z,100077.13
2019-02-09T00:52:35.350Z,100074.09
2019-02-09T00:53:06.559Z,100073.68
2019-02-09T00:53:37.758Z,100077.11
2019-02-09T00:54:11.393Z,100072.81
2019-02-09T00:54:42.593Z,100069.81
2019-02-09T00:55:13.815Z,100066.38
2019-02-09T00:55:45.021Z,100068.52
2019-02-09T00:56:16.256Z,100069.80
2019-02-09T00:56:48.465Z,100074.12
2019-02-09T00:57:19.693Z,100068.09
2019-02-09T00:57:50.897Z,100065.95
2019-02-09T00:58:22.140Z,100071.11
2019-02-09T00:58:53.407Z,100068.06
2019-02-09T00:59:24.630Z,100065.48
2019-02-09T00:59:55.853Z,100068.50
2019-02-09T01:00:29.074Z,100069.35
2019-02-09T01:01:00.288Z,100068.51
2019-02-09T01:01:31.540Z,100065.05
2019-02-09T01:02:02.751Z,100065.91
2019-02-09T01:02:33.996Z,100068.52
2019-02-09T01:03:05.207Z,100062.05
2019-02-09T01:03:36.419Z,100065.05
2019-02-09T01:04:07.630Z,100065.91
2019-02-09T01:04:38.855Z,100065.50
2019-02-09T01:05:10.068Z,100063.33
2019-02-09T01:05:41.294Z,100064.63
2019-02-09T01:06:12.548Z,100060.31
2019-02-09T01:06:43.780Z,100063.32
2019-02-09T01:07:14.966Z,100066.31
2019-02-09T01:07:46.166Z,100062.45
2019-02-09T01:08:19.417Z,100064.59
2019-02-09T01:08:50.638Z,100065.47
2019-02-09T01:09:21.875Z,100061.14
2019-02-09T01:09:53.064Z,100061.17
2019-02-09T01:10:24.270Z,100065.05
2019-02-09T01:10:55.467Z,100062.88
2019-02-09T01:11:26.695Z,100059.02
2019-02-09T01:11:57.901Z,100065.04
2019-02-09T01:12:29.157Z,100051.66
2019-02-09T01:13:00.356Z,100058.14
2019-02-09T01:13:31.614Z,100057.70
2019-02-09T01:14:02.832Z,100059.02
2019-02-09T01:14:34.033Z,100051.27
2019-02-09T01:15:05.241Z,100052.56
2019-02-09T01:15:36.465Z,100054.25
2019-02-09T01:16:07.687Z,100056.41
2019-02-09T01:16:38.890Z,100057.70
2019-02-09T01:17:10.123Z,100049.09
2019-02-09T01:17:42.447Z,100050.81
2019-02-09T01:18:14.013Z,100050.83
2019-02-09T01:18:45.268Z,100053.85
2019-02-09T01:19:16.467Z,100052.12
2019-02-09T01:19:50.195Z,100054.70
2019-02-09T01:20:21.387Z,100054.27
2019-02-09T01:20:52.666Z,100054.70
2019-02-09T01:21:23.912Z,100057.72
2019-02-09T01:21:55.148Z,100056.02
2019-02-09T01:22:26.360Z,100058.16
2019-02-09T01:22:57.580Z,100054.70
2019-02-09T01:23:28.832Z,100056.43
2019-02-09T01:24:00.040Z,100054.28
2019-02-09T01:24:31.258Z,100062.02
2019-02-09T01:25:02.476Z,100054.70
2019-02-09T01:25:33.708Z,100062.05
2019-02-09T01:26:04.933Z,100058.59
2019-02-09T01:26:36.158Z,100061.17
2019-02-09T01:27:07.342Z,100058.15
2019-02-09T01:27:38.558Z,100057.30
2019-02-09T01:28:09.824Z,100058.15
2019-02-09T01:28:41.028Z,100060.73
2019-02-09T01:29:12.241Z,100059.45
2019-02-09T01:29:43.478Z,100058.59
2019-02-09T01:30:14.709Z,100055.58
2019-02-09T01:30:45.929Z,100056.86
2019-02-09T01:31:17.134Z,100055.16
2019-02-09T01:31:48.338Z,100057.73
2019-02-09T01:32:19.537Z,100051.70
2019-02-09T01:32:50.761Z,100054.72
2019-02-09T01:33:22.003Z,100051.28
2019-02-09T01:33:53.246Z,100055.16
2019-02-09T01:34:24.459Z,100050.86
2019-02-09T01:34:55.668Z,100054.73
2019-02-09T01:35:26.897Z,100051.70
2019-02-09T01:35:58.096Z,100052.58
2019-02-09T01:36:29.292Z,100052.57
2019-02-09T01:37:00.503Z,100050.41
2019-02-09T01:37:31.774Z,100051.27
2019-02-09T01:38:03.004Z,100054.31
2019-02-09T01:38:34.232Z,100055.59
2019-02-09T01:39:05.450Z,100047.84
2019-02-09T01:39:36.677Z,100047.39
2019-02-09T01:40:07.877Z,100052.16
2019-02-09T01:40:40.185Z,100049.12
2019-02-09T01:41:11.443Z,100046.98
2019-02-09T01:41:42.756Z,100046.11
2019-02-09T01:42:16.216Z,100046.53
2019-02-09T01:42:47.448Z,100045.69
2019-02-09T01:43:18.702Z,100050.41
2019-02-09T01:43:49.910Z,100046.53
2019-02-09T01:44:21.113Z,100046.97
2019-02-09T01:44:52.363Z,100047.39
2019-02-09T01:45:23.567Z,100050.42
2019-02-09T01:45:54.808Z,100049.53
2019-02-09T01:46:26.055Z,100049.98
2019-02-09T01:46:57.252Z,100047.39
2019-02-09T01:47:28.454Z,100048.69
2019-02-09T01:47:59.664Z,100046.09
2019-02-09T01:48:30.902Z,100046.55
2019-02-09T01:49:02.128Z,100044.37
2019-02-09T01:49:35.613Z,100048.25
2019-02-09T01:50:06.870Z,100042.67
2019-02-09T01:50:38.074Z,100043.50
2019-02-09T01:51:09.290Z,100050.43
2019-02-09T01:51:40.494Z,100040.50
2019-02-09T01:52:19.080Z,100046.55
2019-02-09T01:52:50.293Z,100043.11
2019-02-09T01:53:21.845Z,100050.42
2019-02-09T01:53:53.110Z,100045.69
2019-02-09T01:54:24.366Z,100047.84
2019-02-09T01:54:56.030Z,100045.25
2019-02-09T01:55:27.236Z,100042.22
2019-02-09T01:55:58.440Z,100035.75
2019-02-09T01:56:29.664Z,100047.80
2019-02-09T01:57:00.895Z,100045.23
2019-02-09T01:57:32.075Z,100040.94
2019-02-09T01:58:03.308Z,100045.23
2019-02-09T01:58:34.517Z,100037.05
2019-02-09T01:59:05.722Z,100039.19
2019-02-09T01:59:36.984Z,100038.75
2019-02-09T02:00:10.582Z,100040.47
2019-02-09T02:00:41.170Z,100038.30
2019-02-09T02:01:12.380Z,100043.89
2019-02-09T02:01:43.608Z,100044.31
2019-02-09T02:02:16.844Z,100042.59
2019-02-09T02:02:48.090Z,100044.31
2019-02-09T02:03:19.305Z,100045.62
2019-02-09T02:03:50.510Z,100049.09
2019-02-09T02:04:21.723Z,100044.77
2019-02-09T02:04:52.935Z,100046.05
2019-02-09T02:05:24.137Z,100048.66
2019-02-09T02:05:55.363Z,100041.76
2019-02-09T02:06:26.586Z,100043.49
2019-02-09T02:06:57.809Z,100045.62
2019-02-09T02:07:29.045Z,100044.77
2019-02-09T02:08:00.248Z,100045.20
2019-02-09T02:08:31.479Z,100040.92
2019-02-09T02:09:03.048Z,100045.62
2019-02-09T02:09:34.310Z,100047.78
2019-02-09T02:10:05.598Z,100046.49
2019-02-09T02:10:36.827Z,100046.05
2019-02-09T02:11:08.100Z,100047.78
2019-02-09T02:11:39.314Z,100048.22
2019-02-09T02:12:10.514Z,100043.05
2019-02-09T02:12:41.754Z,100048.66
2019-02-09T02:13:12.978Z,100047.34
2019-02-09T02:13:44.189Z,100048.64
2019-02-09T02:14:15.412Z,100044.33
2019-02-09T02:14:46.672Z,100042.61
2019-02-09T02:15:17.880Z,100052.91
2019-02-09T02:15:49.114Z,100046.02
2019-02-09T02:16:20.806Z,100046.46
2019-02-09T02:16:52.026Z,100046.04
2019-02-09T02:17:23.238Z,100046.48
2019-02-09T02:17:54.454Z,100045.62
2019-02-09T02:18:25.668Z,100044.80
2019-02-09T02:18:56.887Z,100046.50
2019-02-09T02:19:28.101Z,100045.22
2019-02-09T02:19:59.383Z,100044.36
2019-02-09T02:20:30.590Z,100043.95
2019-02-09T02:21:01.828Z,100045.67
2019-02-09T02:21:33.040Z,100041.80
2019-02-09T02:22:04.249Z,100044.39
2019-02-09T02:22:35.476Z,100042.64
2019-02-09T02:23:06.702Z,100040.95
2019-02-09T02:23:38.243Z,100042.22
2019-02-09T02:24:09.865Z,100043.95
2019-02-09T02:24:41.071Z,100042.23
2019-02-09T02:25:12.266Z,100046.11
2019-02-09T02:25:43.476Z,100039.20
2019-02-09T02:26:14.684Z,100040.48
2019-02-09T02:26:45.897Z,100041.37
2019-02-09T02:27:17.503Z,100038.78
2019-02-09T02:27:49.762Z,100043.95
2019-02-09T02:28:21.022Z,100044.82
2019-02-09T02:28:55.350Z,100043.50
2019-02-09T02:29:26.562Z,100041.77
2019-02-09T02:29:57.773Z,100043.52
2019-02-09T02:30:29.020Z,100041.77
2019-02-09T02:31:00.221Z,100046.94
2019-02-09T02:31:31.416Z,100044.35
2019-02-09T02:32:02.643Z,100049.09
2019-02-09T02:32:33.855Z,100043.50
2019-02-09T02:33:05.136Z,100046.94
2019-02-09T02:33:36.348Z,100051.25
2019-02-09T02:34:07.565Z,100049.08
2019-02-09T02:34:38.779Z,100048.23
2019-02-09T02:35:10.013Z,100049.08
2019-02-09T02:35:41.219Z,100045.64
2019-02-09T02:36:12.444Z,100039.18
2019-02-09T02:36:43.704Z,100050.84
2019-02-09T02:37:14.912Z,100045.66
2019-02-09T02:37:46.127Z,100039.20
2019-02-09T02:38:17.356Z,100047.81
2019-02-09T02:38:48.554Z,100043.95
2019-02-09T02:39:19.768Z,100046.94
2019-02-09T02:39:50.992Z,100046.97
2019-02-09T02:40:22.283Z,100047.39
2019-02-09T02:40:53.549Z,100052.14
2019-02-09T02:41:24.736Z,100047.84
2019-02-09T02:41:55.953Z,100048.69
2019-02-09T02:42:27.200Z,100048.70
2019-02-09T02:42:58.407Z,100055.58
2019-02-09T02:43:29.642Z,100053.01
2019-02-09T02:44:00.856Z,100053.02
2019-02-09T02:44:32.110Z,100050.02
2019-02-09T02:45:03.323Z,100050.02
2019-02-09T02:45:34.593Z,100050.86
2019-02-09T02:46:05.821Z,100053.03
2019-02-09T02:46:37.073Z,100051.29
2019-02-09T02:47:08.285Z,100052.59
2019-02-09T02:47:39.525Z,100046.98
2019-02-09T02:48:10.754Z,100053.87
2019-02-09T02:48:44.882Z,100050.41
2019-02-09T02:49:16.091Z,100050.42
2019-02-09T02:49:47.321Z,100046.99
2019-02-09T02:50:18.597Z,100048.27
2019-02-09T02:50:49.830Z,100049.55
2019-02-09T02:51:21.072Z,100045.69
2019-02-09T02:51:52.275Z,100046.98
2019-02-09T02:52:23.497Z,100049.12
2019-02-09T02:52:54.749Z,100052.57
2019-02-09T02:53:25.963Z,100048.69
2019-02-09T02:53:57.165Z,100047.80
2019-02-09T02:54:28.385Z,100051.26
2019-02-09T02:54:59.576Z,100045.22
2019-02-09T02:55:30.807Z,100046.10
2019-02-09T02:56:02.077Z,100048.25
2019-02-09T02:56:33.282Z,100051.68
2019-02-09T02:57:04.499Z,100051.25
2019-02-09T02:57:35.742Z,100052.98
2019-02-09T02:58:06.972Z,100052.54
2019-02-09T02:58:38.199Z,100052.99
2019-02-09T02:59:09.399Z,100048.69
2019-02-09T02:59:40.624Z,100058.60
2019-02-09T03:00:11.903Z,100050.41
2019-02-09T03:00:43.135Z,100053.84
2019-02-09T03:01:14.355Z,100048.23
2019-02-09T03:01:45.575Z,100054.29
2019-02-09T03:02:16.782Z,100054.27
2019-02-09T03:02:47.992Z,100056.45
2019-02-09T03:03:19.202Z,100056.45
2019-02-09T03:03:50.399Z,100053.44
2019-02-09T03:04:21.610Z,100051.73
2019-02-09T03:04:52.815Z,100053.00
2019-02-09T03:05:24.047Z,100048.70
2019-02-09T03:05:55.240Z,100053.87
2019-02-09T03:06:26.501Z,100053.44
2019-02-09T03:06:57.712Z,100048.70
2019-02-09T03:07:28.979Z,100051.27
2019-02-09T03:08:00.183Z,100053.44
2019-02-09T03:08:31.394Z,100052.14
2019-02-09T03:09:02.634Z,100053.48
2019-02-09T03:09:33.850Z,100053.45
2019-02-09T03:10:05.076Z,100050.02
2019-02-09T03:10:36.379Z,100046.11
2019-02-09T03:11:07.590Z,100049.12
2019-02-09T03:11:38.805Z,100048.69
2019-02-09T03:12:10.010Z,100049.56
2019-02-09T03:12:41.238Z,100047.86
2019-02-09T03:13:12.453Z,100048.30
2019-02-09T03:13:43.691Z,100049.56
2019-02-09T03:14:14.942Z,100052.16
2019-02-09T03:14:46.167Z,100047.39
2019-02-09T03:15:17.385Z,100054.30
2019-02-09T03:15:48.645Z,100048.25
2019-02-09T03:16:19.845Z,100050.41
2019-02-09T03:16:51.067Z,100053.87
2019-02-09T03:17:22.309Z,100052.59
2019-02-09T03:17:53.548Z,100054.75
2019-02-09T03:18:24.756Z,100056.48
2019-02-09T03:18:55.964Z,100056.45
2019-02-09T03:19:27.201Z,100058.18
2019-02-09T03:19:58.418Z,100062.48
2019-02-09T03:20:29.725Z,100061.19
2019-02-09T03:21:00.964Z,100064.23
2019-02-09T03:21:39.610Z,100053.89
2019-02-09T03:22:12.864Z,100059.05
2019-02-09T03:22:44.060Z,100057.31
2019-02-09T03:23:15.289Z,100058.59
2019-02-09T03:23:46.526Z,100055.14
2019-02-09T03:24:17.788Z,100060.30
2019-02-09T03:24:48.996Z,100062.90
2019-02-09T03:25:20.202Z,100064.61
2019-02-09T03:25:51.438Z,100058.58
2019-02-09T03:26:22.654Z,100060.73
2019-02-09T03:26:53.865Z,100061.16
2019-02-09T03:27:25.121Z,100059.88
2019-02-09T03:27:56.326Z,100062.88
2019-02-09T03:28:27.534Z,100061.59
2019-02-09T03:28:58.743Z,100065.46
2019-02-09T03:29:29.955Z,100061.58
2019-02-09T03:30:01.170Z,100063.31
2019-02-09T03:30:45.736Z,100063.75
2019-02-09T03:31:05.325Z,100061.19
2019-02-09T03:31:36.596Z,100062.89
2019-02-09T03:32:10.864Z,100064.63
2019-02-09T03:32:40.740Z,100068.08
2019-02-09T03:33:11.961Z,100063.34
2019-02-09T03:33:43.188Z,100062.47
2019-02-09T03:34:14.383Z,100063.76
2019-02-09T03:34:45.586Z,100068.53
2019-02-09T03:35:16.836Z,100063.34
2019-02-09T03:35:48.055Z,100061.63
2019-02-09T03:36:19.294Z,100062.50
2019-02-09T03:36:52.489Z,100063.38
2019-02-09T03:37:23.705Z,100065.09
2019-02-09T03:37:54.955Z,100064.23
2019-02-09T03:38:26.209Z,100063.34
2019-02-09T03:38:58.522Z,100061.63
2019-02-09T03:39:29.729Z,100065.06
2019-02-09T03:40:01.027Z,100065.08
2019-02-09T03:40:32.288Z,100070.25
2019-02-09T03:41:03.500Z,100065.09
2019-02-09T03:41:34.723Z,100067.25
2019-02-09T03:42:05.922Z,100065.55
2019-02-09T03:42:37.131Z,100066.84
2019-02-09T03:43:10.615Z,100070.30
2019-02-09T03:43:41.848Z,100067.67
2019-02-09T03:44:13.063Z,100067.67
2019-02-09T03:44:44.275Z,100070.25
2019-02-09T03:45:15.481Z,100063.78
2019-02-09T03:45:46.722Z,100067.67
2019-02-09T03:46:17.997Z,100068.11
2019-02-09T03:46:49.207Z,100069.83
2019-02-09T03:47:20.448Z,100064.67
2019-02-09T03:47:51.657Z,100066.38
2019-02-09T03:48:22.867Z,100068.09
2019-02-09T03:48:54.255Z,100069.39
2019-02-09T03:49:25.498Z,100068.11
2019-02-09T03:49:56.729Z,100067.66
2019-02-09T03:50:27.950Z,100072.41
2019-02-09T03:50:59.144Z,100067.23
2019-02-09T03:51:30.409Z,100067.66
2019-02-09T03:52:01.590Z,100067.22
2019-02-09T03:52:32.784Z,100073.69
2019-02-09T03:53:04.000Z,100071.13
2019-02-09T03:53:35.222Z,100066.37
2019-02-09T03:54:07.558Z,100071.95
2019-02-09T03:54:38.759Z,100070.26
2019-02-09T03:55:10.002Z,100071.09
2019-02-09T03:55:41.224Z,100068.06
2019-02-09T03:56:12.442Z,100073.66
2019-02-09T03:56:43.670Z,100070.19
2019-02-09T03:57:14.885Z,100067.59
2019-02-09T03:57:46.092Z,100066.72
2019-02-09T03:58:17.350Z,100074.47
2019-02-09T03:58:48.591Z,100073.19
2019-02-09T03:59:19.817Z,100074.48
2019-02-09T03:59:52.059Z,100074.47
2019-02-09T04:00:23.306Z,100071.89
2019-02-09T04:00:55.753Z,100071.05
2019-02-09T04:01:27.200Z,100073.18
2019-02-09T04:01:58.422Z,100070.63
2019-02-09T04:02:32.776Z,100071.47
2019-02-09T04:03:03.984Z,100070.17
2019-02-09T04:03:35.565Z,100070.17
2019-02-09T04:04:06.776Z,100068.88
2019-02-09T04:04:38.358Z,100073.61
2019-02-09T04:05:09.582Z,100065.88
2019-02-09T04:05:40.775Z,100069.30
2019-02-09T04:06:11.973Z,100067.60
2019-02-09T04:06:46.288Z,100066.72
2019-02-09T04:07:17.517Z,100068.47
2019-02-09T04:07:48.782Z,100065.41
2019-02-09T04:08:20.085Z,100069.73
2019-02-09T04:08:52.434Z,100066.70
2019-02-09T04:09:23.629Z,100072.75
2019-02-09T04:09:54.838Z,100075.77
2019-02-09T04:10:26.043Z,100068.87
2019-02-09T04:10:57.311Z,100076.62
2019-02-09T04:11:28.533Z,100071.88
2019-02-09T04:11:59.748Z,100074.45
2019-02-09T04:12:30.997Z,100075.34
2019-02-09T04:13:02.228Z,100074.04
2019-02-09T04:13:33.437Z,100075.78
2019-02-09T04:14:04.704Z,100074.48
2019-02-09T04:14:35.928Z,100075.34
2019-02-09T04:15:07.111Z,100073.61
2019-02-09T04:15:38.388Z,100074.91
2019-02-09T04:16:09.610Z,100075.34
2019-02-09T04:16:40.859Z,100076.19
2019-02-09T04:17:12.072Z,100079.64
2019-02-09T04:17:43.295Z,100077.08
2019-02-09T04:18:14.496Z,100077.94
2019-02-09T04:18:45.708Z,100074.05
2019-02-09T04:19:16.910Z,100077.52
2019-02-09T04:19:48.107Z,100073.63
2019-02-09T04:20:19.339Z,100077.05
2019-02-09T04:20:50.609Z,100078.80
2019-02-09T04:21:21.818Z,100075.77
2019-02-09T04:21:53.027Z,100072.33
2019-02-09T04:22:24.230Z,100078.79
2019-02-09T04:22:55.492Z,100074.50
2019-02-09T04:23:26.700Z,100075.34
2019-02-09T04:23:57.926Z,100074.06
2019-02-09T04:24:29.138Z,100080.96
2019-02-09T04:25:00.344Z,100076.66
2019-02-09T04:25:31.600Z,100078.35
2019-02-09T04:26:02.809Z,100079.20
2019-02-09T04:26:34.025Z,100079.20
2019-02-09T04:27:05.248Z,100082.67
2019-02-09T04:27:36.464Z,100082.23
2019-02-09T04:28:07.670Z,100086.12
2019-02-09T04:28:38.907Z,100078.78
2019-02-09T04:29:10.145Z,100081.39
2019-02-09T04:29:41.353Z,100081.83
2019-02-09T04:30:12.577Z,100083.98
2019-02-09T04:30:43.853Z,100080.10
2019-02-09T04:31:15.107Z,100081.36
2019-02-09T04:31:46.343Z,100079.23
2019-02-09T04:32:17.555Z,100075.77
2019-02-09T04:32:48.791Z,100079.65
2019-02-09T04:33:19.997Z,100083.95
2019-02-09T04:33:51.212Z,100079.60
2019-02-09T04:34:22.442Z,100084.78
2019-02-09T04:34:53.668Z,100080.44
2019-02-09T04:35:24.899Z,100080.03
2019-02-09T04:35:56.230Z,100080.44
2019-02-09T04:36:27.443Z,100086.48
2019-02-09T04:36:59.679Z,100083.45
2019-02-09T04:37:30.898Z,100075.73
2019-02-09T04:38:02.102Z,100081.34
2019-02-09T04:38:33.291Z,100078.31
2019-02-09T04:39:04.494Z,100082.62
2019-02-09T04:39:35.731Z,100078.75
2019-02-09T04:40:06.946Z,100085.63
2019-02-09T04:40:38.155Z,100083.48
2019-02-09T04:41:09.422Z,100082.62
2019-02-09T04:41:40.645Z,100082.66
2019-02-09T04:42:11.877Z,100079.19
2019-02-09T04:42:43.083Z,100083.94
2019-02-09T04:43:14.352Z,100084.37
2019-02-09T04:43:45.573Z,100079.21
2019-02-09T04:44:16.808Z,100082.64
2019-02-09T04:44:48.007Z,100086.08
2019-02-09T04:45:19.231Z,100079.62
2019-02-09T04:45:50.461Z,100086.09
2019-02-09T04:46:21.727Z,100083.95
2019-02-09T04:46:52.942Z,100087.38
2019-02-09T04:47:24.151Z,100083.06
2019-02-09T04:47:56.256Z,100081.34
2019-02-09T04:48:27.471Z,100084.31
2019-02-09T04:48:58.676Z,100084.32
2019-02-09T04:49:31.904Z,100084.73
2019-02-09T04:50:03.108Z,100087.29
2019-02-09T04:50:34.318Z,100083.38
2019-02-09T04:51:05.592Z,100088.55
2019-02-09T04:51:36.812Z,100085.53
2019-02-09T04:52:08.032Z,100088.99
2019-02-09T04:52:39.254Z,100082.09
2019-02-09T04:53:10.468Z,100086.83
2019-02-09T04:53:41.675Z,100086.38
2019-02-09T04:54:12.873Z,100083.36
2019-02-09T04:54:44.126Z,100084.65
2019-02-09T04:55:15.320Z,100087.64
2019-02-09T04:55:46.598Z,100086.38
2019-02-09T04:56:17.804Z,100087.23
2019-02-09T04:56:49.021Z,100088.11
2019-02-09T04:57:20.228Z,100083.83
2019-02-09T04:57:51.485Z,100082.53
2019-02-09T04:58:22.696Z,100083.41
2019-02-09T04:58:53.900Z,100089.02
2019-02-09T04:59:25.109Z,100082.15
2019-02-09T04:59:56.327Z,100084.73
2019-02-09T05:00:27.577Z,100086.89
2019-02-09T05:00:58.761Z,100083.02
2019-02-09T05:01:30.010Z,100086.48
2019-02-09T05:02:01.230Z,100081.31
2019-02-09T05:02:32.457Z,100086.48
2019-02-09T05:03:05.137Z,100083.48
2019-02-09T05:03:36.755Z,100089.50
2019-02-09T05:04:07.972Z,100082.63
2019-02-09T05:04:40.043Z,100077.00
2019-02-09T05:05:11.263Z,100087.33
2019-02-09T05:05:42.445Z,100085.60
2019-02-09T05:06:13.656Z,100088.19
2019-02-09T05:06:44.920Z,100085.20
2019-02-09T05:07:16.148Z,100083.91
2019-02-09T05:07:47.446Z,100080.44
2019-02-09T05:08:18.655Z,100081.32
2019-02-09T05:08:49.859Z,100082.17
2019-02-09T05:09:21.058Z,100083.88
2019-02-09T05:09:52.292Z,100077.00
2019-02-09T05:10:23.498Z,100081.30
2019-02-09T05:10:54.710Z,100083.00
2019-02-09T05:11:25.950Z,100079.97
2019-02-09T05:11:57.226Z,100083.00
2019-02-09T05:12:29.527Z,100085.58
2019-02-09T05:13:00.785Z,100084.27
2019-02-09T05:13:32.029Z,100087.70
2019-02-09T05:14:03.291Z,100080.34
2019-02-09T05:14:34.489Z,100087.64
2019-02-09T05:15:05.736Z,100090.25
2019-02-09T05:15:36.998Z,100087.27
2019-02-09T05:16:08.200Z,100086.82
2019-02-09T05:16:39.422Z,100087.70
2019-02-09T05:17:11.028Z,100090.72
2019-02-09T05:17:42.253Z,100089.46
2019-02-09T05:18:13.485Z,100083.41
2019-02-09T05:18:44.696Z,100092.89
2019-02-09T05:19:15.953Z,100083.85
2019-02-09T05:19:47.179Z,100086.44
2019-02-09T05:20:18.393Z,100094.19
2019-02-09T05:20:49.608Z,100088.14
2019-02-09T05:21:20.806Z,100088.55
2019-02-09T05:21:52.023Z,100092.45
2019-02-09T05:22:23.268Z,100094.59
2019-02-09T05:22:54.536Z,100088.14
2019-02-09T05:23:25.735Z,100094.59
2019-02-09T05:23:56.972Z,100095.00
2019-02-09T05:24:28.181Z,100092.42
2019-02-09T05:24:59.442Z,100095.89
2019-02-09T05:25:30.673Z,100093.72
2019-02-09T05:26:01.874Z,100093.72
2019-02-09T05:26:33.082Z,100091.58
2019-02-09T05:27:04.307Z,100089.84
2019-02-09T05:27:35.521Z,100090.69
2019-02-09T05:28:06.766Z,100097.59
2019-02-09T05:28:37.973Z,100098.00
2019-02-09T05:29:09.206Z,100091.11
2019-02-09T05:29:40.392Z,100094.54
2019-02-09T05:30:11.613Z,100094.98
2019-02-09T05:30:42.858Z,100097.16
2019-02-09T05:31:22.662Z,100093.28
2019-02-09T05:31:46.995Z,100095.42
2019-02-09T05:32:18.219Z,100094.98
2019-02-09T05:32:49.450Z,100094.13
2019-02-09T05:33:20.668Z,100095.42
2019-02-09T05:33:51.894Z,100097.59
2019-02-09T05:34:23.103Z,100102.31
2019-02-09T05:34:54.313Z,100096.30
2019-02-09T05:35:25.519Z,100098.47
2019-02-09T05:35:56.759Z,100095.45
2019-02-09T05:36:27.960Z,100098.47
2019-02-09T05:36:59.219Z,100096.30
2019-02-09T05:37:30.444Z,100101.05
2019-02-09T05:38:01.695Z,100093.30
2019-02-09T05:38:32.909Z,100103.64
2019-02-09T05:39:04.122Z,100091.58
2019-02-09T05:39:35.377Z,100098.88
2019-02-09T05:40:06.607Z,100096.30
2019-02-09T05:40:37.851Z,100094.16
2019-02-09T05:41:09.079Z,100100.17
2019-02-09T05:41:40.305Z,100088.14
2019-02-09T05:42:11.544Z,100090.72
2019-02-09T05:42:42.750Z,100092.89
2019-02-09T05:43:14.003Z,100090.75
2019-02-09T05:43:45.219Z,100092.02
2019-02-09T05:44:16.423Z,100089.84
2019-02-09T05:44:47.643Z,100091.57
2019-02-09T05:45:18.851Z,100099.31
2019-02-09T05:45:50.060Z,100099.34
2019-02-09T05:46:21.328Z,100092.05
2019-02-09T05:46:52.546Z,100095.03
2019-02-09T05:47:23.754Z,100096.77
2019-02-09T05:47:55.360Z,100098.94
2019-02-09T05:48:26.605Z,100098.94
2019-02-09T05:48:57.810Z,100097.23
2019-02-09T05:49:31.295Z,100097.67
2019-02-09T05:50:03.551Z,100097.23
2019-02-09T05:50:34.737Z,100101.55
2019-02-09T05:51:05.957Z,100099.38
2019-02-09T05:51:37.152Z,100097.23
2019-02-09T05:52:08.441Z,100095.94
2019-02-09T05:52:39.667Z,100099.81
2019-02-09T05:53:10.897Z,100098.53
2019-02-09T05:53:42.109Z,100097.64
2019-02-09T05:54:13.344Z,100101.96
2019-02-09T05:54:44.557Z,100101.52
2019-02-09T05:55:15.783Z,100102.81
2019-02-09T05:55:46.996Z,100106.27
2019-02-09T05:56:18.207Z,100107.56
2019-02-09T05:56:49.409Z,100099.38
2019-02-09T05:57:20.690Z,100099.38
2019-02-09T05:57:51.892Z,100101.08